Latest METARs, TAFs and NOTAMs for TIST


---------------------------------------------------------------------------
	(OBSERVATIONS)
TIST 171353Z 13010KT 10SM CLR 28/22 A3012 RMK AO2 SLP201  T02780222
    $=
TIST 171253Z 12011KT 10SM FEW020 27/23 A3010 RMK AO2 SLP195 
    T02670228 $=
TIST 171153Z 12010KT 10SM SCT020 26/23 A3008 RMK AO2 SLP187 
    T02610228 10261 20239 53018 $=
---------------------------------------------------------------------------
	(TERMINAL AREA FORECAST)
TIST 171127Z 1712/1812 12007KT P6SM VCSH FEW025 SCT050
    FM171400 13013KT P6SM FEW025 FEW035
    FM172200 11006KT P6SM SCT030=
---------------------------------------------------------------------------
	(NOTAMS)


TIST 01/007 AIRSPACE SEE FDC 9/0884 ZSU 91.137 HAZARD. 08 JAN
    13:00 2019 UNTIL 21 DEC 22:00 2019. CREATED: 04 JAN 09:22
    2019

TIST 01/013 NAV ILS RWY 10 LOC/GP/DME U/S. 15 JAN 20:13 2019
    UNTIL 17 APR 19:00 2019 ESTIMATED. CREATED: 15 JAN 20:13
    2019

TIST 02/001 RWY 10/28 CLSD EXC 1 HR PPR 340-201-2598 DLY 0200-0900.
    02 FEB 02:00 2019 UNTIL 01 MAR 09:00 2019. CREATED: 01 FEB
    14:32 2019

TIST 02/006 TWY A10 WIP RESURFACING ADJ EAST SIDE. 15 FEB 16:15
    2019 UNTIL 22 FEB 23:59 2019. CREATED: 15 FEB 16:15 2019

TIST 02/007 AD AP ALL SFC WIP GRASS CUTTING ON AIRFIELD. 16 FEB
    02:00 2019 UNTIL 22 FEB 09:00 2019. CREATED: 15 FEB 17:17
    2019

TIST 11/005 SVC TWR OPN DLY 1100-0130. 04 NOV 11:00 2018 UNTIL
    09 MAR 01:30 2019. CREATED: 03 NOV 17:32 2018

TIST 11/016 AIRSPACE PJE WI AN AREA DEFINED AS 2.5NM RADIUS OF
    STT117009 SFC-10000FT DLY SR-SS. 21 NOV 06:29 2018 UNTIL
    20 FEB 18:23 2019. CREATED: 20 NOV 20:27 2018

TIST 12/015 OBST TOWER LGT (ASR 1271367) 182032.50N0645738.20W
    (0.8NM ENE STT) 386.2FT (60.0FT AGL) OUT OF SERVICE. 19 DEC
    18:01 2018 UNTIL 19 APR 23:59 2019. CREATED: 19 DEC 18:01
    2018

TIST 12/017 SVC PCL RWY 10 PAPI OUT OF SERVICE. 21 DEC 14:20
    2018 UNTIL 27 DEC 20:00 2019 ESTIMATED. CREATED: 21 DEC 14:20
    2018

TIST A0017/19 ILS RWY 10 LOC/GP/DME U/S. 15 JAN 20:13 2019 UNTIL
    17 APR 19:00 2019 ESTIMATED. CREATED: 15 JAN 20:13 2019

TIST A0021/19 RWY 10/28 CLSD EXC 1 HR PPR 340-201-2598. DLY 0200-0900,
    02 FEB 02:00 2019 UNTIL 01 MAR 09:00 2019. CREATED: 01 FEB
    14:42 2019

TIST A0026/19 TWY A10 WIP RESURFACING ADJ EAST SIDE. 15 FEB 16:15
    2019 UNTIL 22 FEB 23:59 2019. CREATED: 15 FEB 16:16 2019

TIST A0027/19 AP ALL SFC WIP GRASS CUTTING ON AIRFIELD. 16 FEB
    02:00 2019 UNTIL 22 FEB 09:00 2019. CREATED: 15 FEB 17:25
    2019

TIST A0311/18 TWR OPN. DLY 1100-0130, 04 NOV 11:00 2018 UNTIL
    09 MAR 01:30 2019. CREATED: 03 NOV 17:34 2018

TIST A0355/18 PCL RWY 10 PAPI U/S. 21 DEC 14:20 2018 UNTIL 27
    DEC 20:00 2019 ESTIMATED. CREATED: 21 DEC 14:27 2018

---------------------------------------------------------------------------